Time;durP1;ratioP1;P1;durP2;ratioP2;P2;SDS_P1;SDS_P2;PMS_P1;PMS_P2;Temp;Humidity;BMP_temperature;BMP_pressure;BME280_temperature;BME280_humidity;BME280_pressure;Samples;Min_cycle;Max_cycle;Signal;HPM_P1;HPM_P2
2023/04/06 00:01:41;;;;;;;8.80;3.13;;;;;;;;;;6247092;23;20000;-67
2023/04/06 00:04:07;;;;;;;7.27;3.10;;;;;;;;;;6247134;23;20457;-66
2023/04/06 00:06:34;;;;;;;5.40;3.20;;;;;;;;;;6246992;23;20412;-66
2023/04/06 00:09:00;;;;;;;9.00;3.17;;;;;;;;;;6246868;23;20008;-66
2023/04/06 00:11:27;;;;;;;8.90;3.60;;;;;;;;;;6247004;23;20000;-67
2023/04/06 00:13:53;;;;;;;5.07;2.83;;;;;;;;;;6247263;23;20000;-67
2023/04/06 00:16:20;;;;;;;11.40;3.00;;;;;;;;;;6247115;23;20008;-66
2023/04/06 00:18:46;;;;;;;5.67;3.40;;;;;;;;;;6246779;23;20011;-67
2023/04/06 00:21:13;;;;;;;7.57;3.83;;;;;;;;;;6246761;23;20000;-67
2023/04/06 00:23:39;;;;;;;11.03;3.90;;;;;;;;;;6246935;23;20050;-66
2023/04/06 00:26:05;;;;;;;12.20;3.57;;;;;;;;;;6246895;23;20080;-66
2023/04/06 00:28:31;;;;;;;6.13;3.10;;;;;;;;;;6247187;23;20425;-67
2023/04/06 00:30:57;;;;;;;6.13;2.80;;;;;;;;;;6247098;23;20033;-66
2023/04/06 00:33:24;;;;;;;5.63;2.87;;;;;;;;;;6246970;23;20027;-66
2023/04/06 00:35:51;;;;;;;7.43;3.13;;;;;;;;;;6247264;23;20000;-67
2023/04/06 00:38:17;;;;;;;9.57;3.27;;;;;;;;;;6246896;23;20040;-66
2023/04/06 00:40:46;;;;;;;6.83;3.23;;;;;;;;;;6246256;23;20446;-67
2023/04/06 00:43:13;;;;;;;6.30;3.00;;;;;;;;;;6246685;23;20006;-67
2023/04/06 00:45:40;;;;;;;8.70;3.80;;;;;;;;;;6246873;23;20422;-67
2023/04/06 00:48:06;;;;;;;10.50;3.87;;;;;;;;;;6246617;23;20004;-66
2023/04/06 00:50:33;;;;;;;10.27;3.40;;;;;;;;;;6246492;23;20008;-67
2023/04/06 00:52:59;;;;;;;6.50;3.30;;;;;;;;;;6246664;23;20102;-67
2023/04/06 00:55:26;;;;;;;7.87;3.30;;;;;;;;;;6246353;23;20000;-67
2023/04/06 00:57:52;;;;;;;7.27;3.40;;;;;;;;;;6244765;23;20028;-67
2023/04/06 01:00:18;;;;;;;14.10;3.50;;;;;;;;;;6242799;23;20493;-67
2023/04/06 01:02:46;;;;;;;6.90;3.30;;;;;;;;;;6242881;23;20008;-67
2023/04/06 01:05:12;;;;;;;8.30;3.30;;;;;;;;;;6244841;23;20011;-67
2023/04/06 01:07:38;;;;;;;7.60;3.37;;;;;;;;;;6246487;23;19996;-67
2023/04/06 01:10:04;;;;;;;9.97;3.10;;;;;;;;;;6246273;23;20105;-67
2023/04/06 01:12:30;;;;;;;9.13;3.63;;;;;;;;;;6245981;23;20007;-67
2023/04/06 01:14:57;;;;;;;5.70;3.23;;;;;;;;;;6246482;23;20170;-67
2023/04/06 01:17:23;;;;;;;6.90;3.30;;;;;;;;;;6246169;23;20378;-67
2023/04/06 01:19:51;;;;;;;9.83;3.10;;;;;;;;;;6246448;23;20035;-67
2023/04/06 01:22:17;;;;;;;21.00;3.90;;;;;;;;;;6246565;23;20058;-67
2023/04/06 01:24:43;;;;;;;7.27;3.10;;;;;;;;;;6247184;23;20004;-67
2023/04/06 01:27:09;;;;;;;7.10;3.43;;;;;;;;;;6246933;23;20411;-67
2023/04/06 01:29:35;;;;;;;7.97;3.10;;;;;;;;;;6245639;23;20000;-66
2023/04/06 01:32:01;;;;;;;10.57;3.10;;;;;;;;;;6246168;23;20008;-67
2023/04/06 01:34:27;;;;;;;12.67;3.93;;;;;;;;;;6246249;23;20008;-67
2023/04/06 01:36:53;;;;;;;6.73;3.30;;;;;;;;;;6245793;23;20030;-66
2023/04/06 01:39:20;;;;;;;5.47;2.83;;;;;;;;;;6245839;23;20338;-66
2023/04/06 01:41:49;;;;;;;6.10;3.37;;;;;;;;;;6218807;23;20005;-66
2023/04/06 01:44:18;;;;;;;9.27;3.87;;;;;;;;;;6245618;23;20311;-67
2023/04/06 01:46:45;;;;;;;9.50;3.20;;;;;;;;;;6246270;23;20023;-66
2023/04/06 01:49:11;;;;;;;7.77;3.20;;;;;;;;;;6245763;23;20054;-66
2023/04/06 01:51:37;;;;;;;5.77;3.27;;;;;;;;;;6245941;23;20074;-67
2023/04/06 01:54:04;;;;;;;8.00;2.90;;;;;;;;;;6246105;23;19996;-67
2023/04/06 01:56:30;;;;;;;6.00;3.13;;;;;;;;;;6245817;23;20045;-67
2023/04/06 01:58:56;;;;;;;6.93;3.47;;;;;;;;;;6246254;23;20012;-67
2023/04/06 02:01:22;;;;;;;11.83;3.77;;;;;;;;;;6245721;23;20472;-66
2023/04/06 02:03:48;;;;;;;5.33;3.60;;;;;;;;;;6245788;23;20318;-66
2023/04/06 02:06:14;;;;;;;6.40;3.47;;;;;;;;;;6219383;23;20054;-66
2023/04/06 02:08:41;;;;;;;7.43;3.53;;;;;;;;;;6245879;23;19997;-66
2023/04/06 02:11:07;;;;;;;7.73;3.13;;;;;;;;;;6245712;23;19996;-66
2023/04/06 02:13:33;;;;;;;7.17;3.47;;;;;;;;;;6245785;23;20318;-66
2023/04/06 02:15:59;;;;;;;6.10;2.77;;;;;;;;;;6245933;23;20004;-66
2023/04/06 02:18:25;;;;;;;9.77;2.90;;;;;;;;;;6245761;23;20095;-66
2023/04/06 02:20:51;;;;;;;7.03;3.37;;;;;;;;;;6245405;23;20000;-66
2023/04/06 02:23:17;;;;;;;6.17;3.37;;;;;;;;;;6245518;23;19996;-67
2023/04/06 02:25:44;;;;;;;6.27;2.83;;;;;;;;;;6245351;23;20445;-66
2023/04/06 02:28:10;;;;;;;7.80;3.50;;;;;;;;;;6245457;23;20384;-67
2023/04/06 02:30:36;;;;;;;8.90;3.30;;;;;;;;;;6245558;23;20071;-66
2023/04/06 02:33:02;;;;;;;7.43;2.90;;;;;;;;;;6218555;23;20061;-66
2023/04/06 02:35:29;;;;;;;9.53;3.43;;;;;;;;;;6245589;23;19996;-66
2023/04/06 02:37:55;;;;;;;6.30;3.70;;;;;;;;;;6245799;23;20022;-67
2023/04/06 02:40:21;;;;;;;10.90;3.07;;;;;;;;;;6245524;23;20012;-66
2023/04/06 02:42:47;;;;;;;6.73;3.10;;;;;;;;;;6245289;23;20004;-67
2023/04/06 02:45:13;;;;;;;8.03;3.37;;;;;;;;;;6245432;23;20415;-66
2023/04/06 02:47:40;;;;;;;6.40;2.87;;;;;;;;;;6245377;23;20007;-66
2023/04/06 02:50:06;;;;;;;5.67;2.93;;;;;;;;;;6245312;23;20020;-66
2023/04/06 02:52:32;;;;;;;7.10;3.13;;;;;;;;;;6245768;23;20004;-66
2023/04/06 02:55:00;;;;;;;5.63;3.00;;;;;;;;;;6245358;23;20031;-66
2023/04/06 02:57:26;;;;;;;6.53;3.37;;;;;;;;;;6245353;23;20006;-66
2023/04/06 02:59:52;;;;;;;6.00;2.87;;;;;;;;;;6245350;23;20484;-66
2023/04/06 03:02:18;;;;;;;8.00;3.60;;;;;;;;;;6245559;23;20024;-66
2023/04/06 03:04:44;;;;;;;8.40;3.40;;;;;;;;;;6245204;23;20084;-66
2023/04/06 03:07:11;;;;;;;5.67;3.10;;;;;;;;;;6245230;23;19996;-67
2023/04/06 03:09:40;;;;;;;7.77;3.40;;;;;;;;;;6245386;23;20027;-67
2023/04/06 03:12:06;;;;;;;7.77;3.53;;;;;;;;;;6245552;23;20449;-66
2023/04/06 03:14:32;;;;;;;8.20;3.07;;;;;;;;;;6245541;23;20000;-67
2023/04/06 03:16:59;;;;;;;7.53;3.07;;;;;;;;;;6245597;23;20000;-67
2023/04/06 03:19:25;;;;;;;5.53;3.30;;;;;;;;;;6245067;23;20015;-66
2023/04/06 03:21:51;;;;;;;6.33;3.00;;;;;;;;;;6245335;23;20304;-67
2023/04/06 03:24:17;;;;;;;6.83;3.00;;;;;;;;;;6245335;23;20004;-67
2023/04/06 03:26:43;;;;;;;8.57;3.50;;;;;;;;;;6245261;23;20001;-67
2023/04/06 03:29:10;;;;;;;5.67;3.00;;;;;;;;;;6244972;23;20008;-67
2023/04/06 03:31:36;;;;;;;6.13;3.27;;;;;;;;;;6245990;23;20304;-67
2023/04/06 03:34:02;;;;;;;6.57;3.70;;;;;;;;;;6247169;23;20019;-67
2023/04/06 03:36:28;;;;;;;11.23;4.40;;;;;;;;;;6220131;23;20311;-67
2023/04/06 03:38:54;;;;;;;8.07;3.60;;;;;;;;;;6247118;23;20011;-67
2023/04/06 03:41:20;;;;;;;7.30;3.53;;;;;;;;;;6220421;23;20000;-66
2023/04/06 03:43:46;;;;;;;6.97;4.17;;;;;;;;;;6247375;23;20083;-67
2023/04/06 03:46:12;;;;;;;8.10;5.07;;;;;;;;;;6247137;23;20448;-67
2023/04/06 03:48:39;;;;;;;7.03;3.63;;;;;;;;;;6247351;23;20008;-67
2023/04/06 03:51:05;;;;;;;5.63;3.03;;;;;;;;;;6246763;23;20319;-67
2023/04/06 03:53:31;;;;;;;10.53;6.67;;;;;;;;;;6247191;23;20331;-67
2023/04/06 03:55:57;;;;;;;8.67;4.73;;;;;;;;;;6247153;23;20011;-67
2023/04/06 03:58:23;;;;;;;7.23;3.33;;;;;;;;;;6246889;23;20466;-67
2023/04/06 04:00:49;;;;;;;7.53;3.37;;;;;;;;;;6246761;23;20010;-67
2023/04/06 04:03:15;;;;;;;8.93;3.33;;;;;;;;;;6247215;23;20422;-67
2023/04/06 04:05:42;;;;;;;7.20;3.40;;;;;;;;;;6246796;23;20050;-67
2023/04/06 04:08:08;;;;;;;7.27;3.23;;;;;;;;;;6246699;23;20050;-67
2023/04/06 04:10:34;;;;;;;6.33;3.43;;;;;;;;;;6246821;23;20419;-67
2023/04/06 04:13:01;;;;;;;7.40;3.20;;;;;;;;;;6246601;23;20008;-67
2023/04/06 04:15:27;;;;;;;5.43;3.23;;;;;;;;;;6246976;23;20106;-67
2023/04/06 04:17:53;;;;;;;8.67;3.43;;;;;;;;;;6219942;23;20338;-66
2023/04/06 04:20:19;;;;;;;7.73;3.73;;;;;;;;;;6246594;23;20008;-67
2023/04/06 04:22:45;;;;;;;5.83;3.10;;;;;;;;;;6246841;23;20046;-67
2023/04/06 04:25:11;;;;;;;9.13;3.80;;;;;;;;;;6246907;23;20000;-67
2023/04/06 04:27:37;;;;;;;13.30;3.67;;;;;;;;;;6246246;23;19996;-66
2023/04/06 04:30:03;;;;;;;8.87;3.10;;;;;;;;;;6246716;23;20034;-66
2023/04/06 04:32:30;;;;;;;7.83;3.80;;;;;;;;;;6246629;23;20079;-67
2023/04/06 04:34:56;;;;;;;8.83;3.20;;;;;;;;;;6246870;23;19996;-67
2023/04/06 04:37:22;;;;;;;10.87;3.97;;;;;;;;;;6246655;23;20506;-67
2023/04/06 04:39:48;;;;;;;6.73;4.00;;;;;;;;;;6246354;23;20084;-67
2023/04/06 04:42:14;;;;;;;6.83;3.60;;;;;;;;;;6246440;23;19997;-68
2023/04/06 04:44:40;;;;;;;7.43;3.60;;;;;;;;;;6246641;23;20011;-65
2023/04/06 04:47:06;;;;;;;6.63;4.03;;;;;;;;;;6219544;23;20430;-66
2023/04/06 04:49:32;;;;;;;8.80;3.57;;;;;;;;;;6246068;23;20023;-65
2023/04/06 04:51:58;;;;;;;10.27;4.43;;;;;;;;;;6246693;23;20414;-65
2023/04/06 04:54:24;;;;;;;8.93;3.50;;;;;;;;;;6246303;23;20000;-66
2023/04/06 04:56:51;;;;;;;9.40;3.30;;;;;;;;;;6246117;23;20059;-66
2023/04/06 04:59:17;;;;;;;9.13;3.37;;;;;;;;;;6246185;23;20151;-66
2023/04/06 05:01:43;;;;;;;8.87;3.20;;;;;;;;;;6246292;23;20000;-65
2023/04/06 05:04:09;;;;;;;8.57;3.80;;;;;;;;;;6246430;23;20103;-64
2023/04/06 05:06:35;;;;;;;9.40;3.63;;;;;;;;;;6246060;23;20000;-64
2023/04/06 05:09:01;;;;;;;8.87;3.57;;;;;;;;;;6246012;23;20304;-65
2023/04/06 05:11:28;;;;;;;7.57;3.53;;;;;;;;;;6246381;23;20003;-65
2023/04/06 05:13:54;;;;;;;6.83;3.40;;;;;;;;;;6246377;23;20443;-65
2023/04/06 05:16:20;;;;;;;6.50;3.63;;;;;;;;;;6246311;23;19996;-65
2023/04/06 05:18:48;;;;;;;11.10;4.13;;;;;;;;;;6246256;23;20079;-66
2023/04/06 05:21:14;;;;;;;7.03;3.77;;;;;;;;;;6246639;23;20004;-65
2023/04/06 05:23:40;;;;;;;7.47;3.23;;;;;;;;;;6246035;23;19996;-65
2023/04/06 05:26:06;;;;;;;9.10;3.60;;;;;;;;;;6245027;23;20348;-64
2023/04/06 05:28:32;;;;;;;8.67;3.97;;;;;;;;;;6245194;23;20012;-65
2023/04/06 05:30:59;;;;;;;7.03;3.33;;;;;;;;;;6245208;23;20007;-65
2023/04/06 05:33:26;;;;;;;5.87;3.57;;;;;;;;;;6245584;23;20035;-65
2023/04/06 05:35:52;;;;;;;7.93;4.30;;;;;;;;;;6245356;23;20027;-65
2023/04/06 05:38:18;;;;;;;9.77;4.10;;;;;;;;;;6245623;23;20005;-65
2023/04/06 05:40:44;;;;;;;10.37;3.73;;;;;;;;;;6245737;23;20306;-66
2023/04/06 05:43:10;;;;;;;8.53;3.77;;;;;;;;;;6246001;23;20474;-66
2023/04/06 05:45:36;;;;;;;8.17;3.47;;;;;;;;;;6246431;23;20004;-66
2023/04/06 05:48:03;;;;;;;6.90;3.70;;;;;;;;;;6246239;23;20091;-66
2023/04/06 05:50:29;;;;;;;7.40;3.93;;;;;;;;;;6245648;23;20393;-66
2023/04/06 05:52:55;;;;;;;7.53;3.93;;;;;;;;;;6247692;23;20028;-66
2023/04/06 05:55:21;;;;;;;10.83;3.80;;;;;;;;;;6246364;23;20006;-66
2023/04/06 05:57:47;;;;;;;10.13;3.40;;;;;;;;;;6245135;23;20003;-66
2023/04/06 06:00:14;;;;;;;8.60;3.67;;;;;;;;;;6244733;23;20035;-66
2023/04/06 06:02:42;;;;;;;8.80;3.87;;;;;;;;;;6245137;23;20476;-66
2023/04/06 06:05:09;;;;;;;10.93;3.77;;;;;;;;;;6218799;23;20330;-66
2023/04/06 06:07:35;;;;;;;12.73;4.47;;;;;;;;;;6245868;23;20011;-67
2023/04/06 06:10:01;;;;;;;13.93;4.20;;;;;;;;;;6245836;23;20138;-67
2023/04/06 06:12:28;;;;;;;13.93;4.10;;;;;;;;;;6244952;23;20518;-67
2023/04/06 06:14:55;;;;;;;10.07;3.87;;;;;;;;;;6245055;23;20027;-67
2023/04/06 06:17:21;;;;;;;8.83;4.40;;;;;;;;;;6245175;23;19996;-66
2023/04/06 06:19:47;;;;;;;7.13;3.37;;;;;;;;;;6245547;23;20338;-67
2023/04/06 06:22:13;;;;;;;7.63;3.63;;;;;;;;;;6245133;23;19996;-66
2023/04/06 06:24:39;;;;;;;7.37;3.57;;;;;;;;;;6245639;23;20008;-66
2023/04/06 06:27:07;;;;;;;7.00;3.83;;;;;;;;;;6245867;23;20000;-66
2023/04/06 06:29:33;;;;;;;8.07;3.67;;;;;;;;;;6244096;23;20007;-66
2023/04/06 06:31:59;;;;;;;8.90;3.73;;;;;;;;;;6245704;23;20003;-66
2023/04/06 06:34:26;;;;;;;8.93;3.53;;;;;;;;;;6245779;23;20366;-66
2023/04/06 06:36:54;;;;;;;7.77;3.50;;;;;;;;;;6245571;23;20000;-66
2023/04/06 06:39:20;;;;;;;5.80;3.20;;;;;;;;;;6245120;23;20500;-67
2023/04/06 06:41:46;;;;;;;9.23;3.40;;;;;;;;;;6245223;23;20000;-67
2023/04/06 06:44:12;;;;;;;7.57;3.20;;;;;;;;;;6245478;23;20503;-67
2023/04/06 06:46:39;;;;;;;7.63;3.20;;;;;;;;;;6245314;23;19999;-67
2023/04/06 06:49:05;;;;;;;8.07;3.63;;;;;;;;;;6244833;23;20004;-67
2023/04/06 06:51:31;;;;;;;7.60;3.67;;;;;;;;;;6245243;23;20054;-67
2023/04/06 06:53:57;;;;;;;4.63;2.93;;;;;;;;;;6244987;23;20461;-67
2023/04/06 06:56:23;;;;;;;9.53;3.53;;;;;;;;;;6244955;23;20000;-67
2023/04/06 06:58:49;;;;;;;7.13;3.77;;;;;;;;;;6245169;23;20065;-67
2023/04/06 07:01:15;;;;;;;14.33;4.30;;;;;;;;;;6245205;23;20403;-67
2023/04/06 07:03:41;;;;;;;11.03;3.53;;;;;;;;;;6244557;23;20003;-67
2023/04/06 07:06:08;;;;;;;10.20;3.70;;;;;;;;;;6246342;23;20004;-67
2023/04/06 07:08:35;;;;;;;12.27;3.60;;;;;;;;;;6247190;23;20000;-67
2023/04/06 07:11:01;;;;;;;5.77;3.60;;;;;;;;;;6247509;23;20019;-67
2023/04/06 07:13:27;;;;;;;9.10;3.60;;;;;;;;;;6220631;23;20007;-68
2023/04/06 07:15:54;;;;;;;6.57;3.60;;;;;;;;;;6247435;23;20002;-67
2023/04/06 07:18:20;;;;;;;6.63;3.30;;;;;;;;;;6247296;23;20000;-70
2023/04/06 07:20:46;;;;;;;6.57;3.87;;;;;;;;;;6247142;23;20008;-67
2023/04/06 07:23:12;;;;;;;8.97;4.20;;;;;;;;;;6246826;23;20000;-67
2023/04/06 07:25:39;;;;;;;5.33;3.53;;;;;;;;;;6245055;23;20480;-67
2023/04/06 07:28:05;;;;;;;15.63;3.90;;;;;;;;;;6247432;23;20380;-67
2023/04/06 07:30:31;;;;;;;6.53;3.33;;;;;;;;;;6247414;23;20097;-67
2023/04/06 07:32:58;;;;;;;10.27;3.90;;;;;;;;;;6247102;23;20036;-67
2023/04/06 07:35:26;;;;;;;8.13;3.20;;;;;;;;;;6247360;23;20027;-69
2023/04/06 07:37:52;;;;;;;10.40;3.40;;;;;;;;;;6247329;23;20012;-67
2023/04/06 07:40:19;;;;;;;10.50;3.30;;;;;;;;;;6247344;23;20083;-67
2023/04/06 07:42:45;;;;;;;7.97;3.97;;;;;;;;;;6247603;23;20004;-67
2023/04/06 07:45:12;;;;;;;7.27;3.13;;;;;;;;;;6220462;23;20438;-67
2023/04/06 07:47:38;;;;;;;8.03;3.20;;;;;;;;;;6247092;23;20011;-66
2023/04/06 07:50:04;;;;;;;6.83;3.33;;;;;;;;;;6246981;23;20016;-67
2023/04/06 07:52:31;;;;;;;8.37;3.13;;;;;;;;;;6247152;23;20007;-67
2023/04/06 07:54:58;;;;;;;9.07;4.10;;;;;;;;;;6247131;23;20330;-67
2023/04/06 07:57:24;;;;;;;10.73;3.70;;;;;;;;;;6247252;23;20330;-67
2023/04/06 07:59:50;;;;;;;7.67;3.27;;;;;;;;;;6247169;23;20370;-67
2023/04/06 08:02:16;;;;;;;6.20;3.80;;;;;;;;;;6247024;23;20003;-67
2023/04/06 08:04:43;;;;;;;9.90;3.57;;;;;;;;;;6247124;23;20023;-67
2023/04/06 08:07:09;;;;;;;6.20;3.60;;;;;;;;;;6247097;23;20003;-67
2023/04/06 08:09:35;;;;;;;11.37;3.60;;;;;;;;;;6247015;23;20004;-67
2023/04/06 08:12:01;;;;;;;6.83;3.60;;;;;;;;;;6247892;23;20429;-67
2023/04/06 08:14:27;;;;;;;6.63;2.97;;;;;;;;;;6247015;23;20062;-67
2023/04/06 08:16:53;;;;;;;10.17;4.23;;;;;;;;;;6246409;23;20488;-67
2023/04/06 08:19:19;;;;;;;5.90;3.50;;;;;;;;;;6246681;23;20128;-67
2023/04/06 08:21:47;;;;;;;4.43;2.90;;;;;;;;;;6246738;23;20042;-67
2023/04/06 08:24:13;;;;;;;6.63;3.73;;;;;;;;;;6247035;23;20480;-67
2023/04/06 08:26:39;;;;;;;7.30;3.50;;;;;;;;;;6246886;23;20330;-67
2023/04/06 08:29:08;;;;;;;7.17;3.70;;;;;;;;;;6246854;23;20470;-66
2023/04/06 08:31:35;;;;;;;6.20;4.00;;;;;;;;;;6246837;23;20006;-67
2023/04/06 08:34:02;;;;;;;6.67;3.63;;;;;;;;;;6246892;23;20000;-67
2023/04/06 08:36:28;;;;;;;6.47;3.53;;;;;;;;;;6246561;23;20053;-67
2023/04/06 08:38:54;;;;;;;6.03;3.27;;;;;;;;;;6246354;23;20016;-67
2023/04/06 08:41:20;;;;;;;8.10;3.73;;;;;;;;;;6246605;23;20496;-67
2023/04/06 08:43:50;;;;;;;7.20;3.60;;;;;;;;;;6247151;23;20004;-67
2023/04/06 08:46:16;;;;;;;6.37;3.80;;;;;;;;;;6246360;23;20427;-67
2023/04/06 08:48:43;;;;;;;10.27;3.50;;;;;;;;;;6246705;23;20315;-67
2023/04/06 08:51:10;;;;;;;5.27;3.60;;;;;;;;;;6246179;23;20012;-67
2023/04/06 08:53:36;;;;;;;6.67;3.80;;;;;;;;;;6246731;23;20000;-67
2023/04/06 08:56:03;;;;;;;11.23;4.07;;;;;;;;;;6246980;23;20403;-67
2023/04/06 08:58:33;;;;;;;5.83;3.20;;;;;;;;;;6246179;23;20067;-67
2023/04/06 09:00:59;;;;;;;11.10;3.90;;;;;;;;;;6246624;23;20114;-67
2023/04/06 09:03:26;;;;;;;8.37;3.67;;;;;;;;;;6246517;23;20010;-67
2023/04/06 09:05:52;;;;;;;7.13;3.53;;;;;;;;;;6246668;23;20383;-67
2023/04/06 09:08:19;;;;;;;10.67;4.40;;;;;;;;;;6246374;23;20032;-67
2023/04/06 09:10:45;;;;;;;7.03;3.67;;;;;;;;;;6246043;23;20028;-67
2023/04/06 09:13:11;;;;;;;6.43;3.90;;;;;;;;;;6246377;23;20000;-67
2023/04/06 09:15:37;;;;;;;7.90;3.73;;;;;;;;;;6246421;23;20000;-65
2023/04/06 09:18:03;;;;;;;9.20;3.93;;;;;;;;;;6246277;23;20430;-67
2023/04/06 09:20:30;;;;;;;9.63;4.00;;;;;;;;;;6246139;23;20381;-67
2023/04/06 09:22:56;;;;;;;6.90;3.50;;;;;;;;;;6246272;23;20352;-67
2023/04/06 09:25:23;;;;;;;8.73;3.80;;;;;;;;;;6246320;23;20022;-67
2023/04/06 09:27:49;;;;;;;8.77;3.60;;;;;;;;;;6246203;23;20007;-67
2023/04/06 09:30:16;;;;;;;8.27;4.17;;;;;;;;;;6245962;23;20036;-67
2023/04/06 09:32:49;;;;;;;7.43;3.70;;;;;;;;;;6246354;23;20000;-67
2023/04/06 09:35:15;;;;;;;7.70;3.80;;;;;;;;;;6246443;23;20300;-67
2023/04/06 09:37:45;;;;;;;5.93;4.00;;;;;;;;;;6245860;23;20357;-67
2023/04/06 09:40:13;;;;;;;7.07;3.77;;;;;;;;;;6246009;23;20329;-67
2023/04/06 09:42:40;;;;;;;7.10;3.73;;;;;;;;;;6246533;23;20071;-67
2023/04/06 09:45:07;;;;;;;9.57;3.73;;;;;;;;;;6246049;23;20434;-67
2023/04/06 09:47:34;;;;;;;7.30;4.10;;;;;;;;;;6246047;23;20419;-67
2023/04/06 09:50:00;;;;;;;7.57;3.97;;;;;;;;;;6245829;23;20070;-67
2023/04/06 09:52:27;;;;;;;5.30;3.55;;;;;;;;;;6246489;23;20059;-67
2023/04/06 09:54:55;;;;;;;7.38;3.67;;;;;;;;;;6245903;23;20008;-67
2023/04/06 09:57:21;;;;;;;10.00;3.77;;;;;;;;;;6245760;23;20365;-67
2023/04/06 09:59:47;;;;;;;6.07;3.60;;;;;;;;;;6245651;23;20369;-67
2023/04/06 10:02:37;;;;;;;7.95;3.78;;;;;;;;;;6246055;23;20442;-67
2023/04/06 10:05:06;;;;;;;6.07;4.00;;;;;;;;;;6226760;23;20004;-67
2023/04/06 10:07:32;;;;;;;5.47;4.00;;;;;;;;;;6245643;23;20020;-67
2023/04/06 10:09:59;;;;;;;7.68;4.03;;;;;;;;;;6245993;23;20326;-67
2023/04/06 10:12:25;;;;;;;6.70;4.28;;;;;;;;;;6245954;23;20000;-67
2023/04/06 10:14:52;;;;;;;6.30;4.07;;;;;;;;;;6245880;23;20437;-67
2023/04/06 10:17:18;;;;;;;7.32;4.20;;;;;;;;;;6247190;23;20007;-67
2023/04/06 10:19:53;;;;;;;10.00;4.32;;;;;;;;;;6219784;23;20420;-67
2023/04/06 10:22:23;;;;;;;5.22;4.28;;;;;;;;;;6248634;23;20407;-67
2023/04/06 10:24:49;;;;;;;6.65;3.90;;;;;;;;;;6248064;23;20007;-67
2023/04/06 10:27:15;;;;;;;6.40;4.32;;;;;;;;;;6245747;23;20000;-67
2023/04/06 10:29:46;;;;;;;7.30;4.45;;;;;;;;;;6245480;23;20073;-67
2023/04/06 10:32:12;;;;;;;7.70;4.50;;;;;;;;;;6245408;23;20327;-67
2023/04/06 10:34:38;;;;;;;8.18;4.60;;;;;;;;;;6243317;23;20011;-68
2023/04/06 10:37:14;;;;;;;8.57;4.13;;;;;;;;;;6244833;23;19996;-68
2023/04/06 10:40:06;;;;;;;9.48;4.55;;;;;;;;;;6244592;23;20012;-71
2023/04/06 10:42:39;;;;;;;6.55;4.57;;;;;;;;;;6238047;23;20004;-78
2023/04/06 10:45:08;;;;;;;7.05;3.92;;;;;;;;;;6244807;23;20007;-76
2023/04/06 10:47:43;;;;;;;6.60;4.47;;;;;;;;;;6245001;23;20433;-73
2023/04/06 10:50:10;;;;;;;11.30;4.88;;;;;;;;;;6244597;23;20430;-70
2023/04/06 10:52:36;;;;;;;10.10;4.78;;;;;;;;;;6245140;23;20378;-68
2023/04/06 10:55:02;;;;;;;7.20;4.60;;;;;;;;;;6244545;23;20004;-68
2023/04/06 10:57:30;;;;;;;12.73;5.22;;;;;;;;;;6244760;23;20369;-67
2023/04/06 10:59:56;;;;;;;10.18;4.85;;;;;;;;;;6244739;23;20012;-68
2023/04/06 11:02:22;;;;;;;8.15;5.03;;;;;;;;;;6244887;23;20456;-73
2023/04/06 11:04:59;;;;;;;8.73;5.28;;;;;;;;;;6245075;23;20020;-70
2023/04/06 11:07:30;;;;;;;8.77;4.88;;;;;;;;;;6217860;23;20076;-68
2023/04/06 11:09:56;;;;;;;9.88;6.10;;;;;;;;;;6243960;23;20004;-73
2023/04/06 11:12:22;;;;;;;6.72;5.60;;;;;;;;;;6244730;23;19996;-68
2023/04/06 11:15:05;;;;;;;7.88;5.63;;;;;;;;;;6244308;23;20084;-69
2023/04/06 11:17:32;;;;;;;10.57;5.80;;;;;;;;;;6244861;23;20003;-69
2023/04/06 11:20:10;;;;;;;10.73;5.82;;;;;;;;;;6246279;23;20453;-75
2023/04/06 11:22:37;;;;;;;12.70;5.97;;;;;;;;;;6249488;23;20111;-76
2023/04/06 11:25:06;;;;;;;9.75;6.20;;;;;;;;;;6246442;23;20107;-74
2023/04/06 11:27:33;;;;;;;11.18;5.72;;;;;;;;;;6244547;23;20000;-68
2023/04/06 11:30:03;;;;;;;12.30;6.25;;;;;;;;;;6244213;23;20004;-70
2023/04/06 11:32:29;;;;;;;8.18;5.85;;;;;;;;;;6244679;23;20001;-68
2023/04/06 11:34:59;;;;;;;11.25;6.28;;;;;;;;;;6245268;23;20008;-68
2023/04/06 11:37:27;;;;;;;8.05;5.43;;;;;;;;;;6244749;23;20004;-75
2023/04/06 11:39:56;;;;;;;9.52;6.28;;;;;;;;;;6244538;23;20012;-71
2023/04/06 11:42:27;;;;;;;7.65;5.63;;;;;;;;;;6244263;23;20318;-68
2023/04/06 11:45:00;;;;;;;9.30;6.30;;;;;;;;;;6244923;23;20028;-68
2023/04/06 11:47:35;;;;;;;7.30;5.63;;;;;;;;;;6244805;23;20003;-68
2023/04/06 11:50:15;;;;;;;7.18;5.75;;;;;;;;;;6244459;23;20024;-68
2023/04/06 11:52:42;;;;;;;12.15;6.40;;;;;;;;;;6245805;23;20011;-68
2023/04/06 11:55:15;;;;;;;10.02;5.95;;;;;;;;;;6246980;23;20079;-68
2023/04/06 11:57:42;;;;;;;12.50;6.13;;;;;;;;;;6247336;23;20022;-68
2023/04/06 12:00:09;;;;;;;10.63;6.15;;;;;;;;;;6244805;23;20414;-68
2023/04/06 12:02:36;;;;;;;8.50;5.97;;;;;;;;;;6243375;23;20413;-68
2023/04/06 12:05:03;;;;;;;9.63;5.90;;;;;;;;;;6243455;23;20040;-69
2023/04/06 12:07:30;;;;;;;9.60;6.20;;;;;;;;;;6246798;23;20008;-69
2023/04/06 12:09:56;;;;;;;10.25;6.28;;;;;;;;;;6246770;23;20003;-68
2023/04/06 12:12:22;;;;;;;10.00;6.22;;;;;;;;;;6246476;23;20438;-68
2023/04/06 12:14:48;;;;;;;11.10;6.05;;;;;;;;;;6246196;23;20007;-68
2023/04/06 12:17:15;;;;;;;9.52;6.47;;;;;;;;;;6246938;23;20004;-68
2023/04/06 12:19:41;;;;;;;10.85;6.30;;;;;;;;;;6246402;23;20012;-68
2023/04/06 12:22:07;;;;;;;7.88;6.35;;;;;;;;;;6219327;23;20012;-69
2023/04/06 12:24:33;;;;;;;8.63;6.05;;;;;;;;;;6246395;23;20030;-69
2023/04/06 12:26:59;;;;;;;11.02;6.65;;;;;;;;;;6242443;23;20343;-68
2023/04/06 12:29:25;;;;;;;15.70;6.45;;;;;;;;;;6243186;23;20011;-68
2023/04/06 12:31:52;;;;;;;12.57;6.40;;;;;;;;;;6245303;23;20004;-68
2023/04/06 12:34:18;;;;;;;9.23;6.20;;;;;;;;;;6246023;23;20006;-68
2023/04/06 12:36:45;;;;;;;12.57;6.90;;;;;;;;;;6246013;23;20000;-67
2023/04/06 12:39:11;;;;;;;9.45;7.05;;;;;;;;;;6246084;23;20383;-68
2023/04/06 12:41:40;;;;;;;9.70;6.90;;;;;;;;;;6245883;23;20007;-68
2023/04/06 12:44:06;;;;;;;15.25;6.43;;;;;;;;;;6245606;23;20004;-69
2023/04/06 12:46:32;;;;;;;14.45;6.22;;;;;;;;;;6246255;23;20003;-68
2023/04/06 12:48:59;;;;;;;9.77;6.43;;;;;;;;;;6245821;23;20415;-68
2023/04/06 12:51:27;;;;;;;16.42;6.60;;;;;;;;;;6219144;23;20070;-68
2023/04/06 12:53:54;;;;;;;10.70;7.05;;;;;;;;;;6246116;23;20000;-68
2023/04/06 12:56:23;;;;;;;11.65;6.30;;;;;;;;;;6246171;23;20444;-68
2023/04/06 12:58:52;;;;;;;8.15;6.35;;;15.30;36.50;;;;;;6245711;23;20060;-68
2023/04/06 13:01:17;;;;;;;13.70;6.97;;;15.80;37.50;;;;;;6245544;23;20008;-68
2023/04/06 13:03:44;;;;;;;10.32;6.93;;;15.80;35.80;;;;;;6245675;23;20004;-68
2023/04/06 13:06:11;;;;;;;13.77;6.75;;;;;;;;;;6245794;23;20406;-70
2023/04/06 13:08:37;;;;;;;10.40;6.43;;;;;;;;;;6245670;23;20075;-68
2023/04/06 13:11:04;;;;;;;9.38;6.93;;;;;;;;;;6218881;23;20329;-69
2023/04/06 13:13:31;;;;;;;10.20;7.05;;;;;;;;;;6245629;23;20044;-69
2023/04/06 13:16:03;;;;;;;11.52;6.95;;;15.80;63.00;;;;;;6245655;23;20011;-69
2023/04/06 13:18:30;;;;;;;16.10;7.82;;;15.90;63.70;;;;;;6245947;23;20426;-68
2023/04/06 13:20:56;;;;;;;10.98;7.10;;;15.80;62.10;;;;;;6246080;23;20070;-68
2023/04/06 13:23:25;;;;;;;10.00;7.25;;;15.90;62.80;;;;;;6245536;23;20043;-68
2023/04/06 13:26:04;;;;;;;11.15;8.20;;;15.90;56.80;;;;;;6245669;23;20373;-68
2023/04/06 13:28:31;;;;;;;12.30;7.63;;;16.00;53.50;;;;;;6245718;23;20062;-68
2023/04/06 13:30:59;;;;;;;22.70;7.75;;;15.80;37.60;;;;;;6245875;23;20008;-68
2023/04/06 13:33:25;;;;;;;10.85;7.30;;;15.90;37.10;;;;;;6245721;23;20007;-68
2023/04/06 13:35:51;;;;;;;12.23;7.30;;;15.90;36.40;;;;;;6245619;23;19996;-68
2023/04/06 13:38:17;;;;;;;18.25;8.70;;;15.90;36.30;;;;;;6245699;23;20015;-68
2023/04/06 13:40:43;;;;;;;15.43;8.45;;;15.90;36.90;;;;;;6245224;23;20009;-68
2023/04/06 13:43:10;;;;;;;17.92;8.80;;;15.90;37.20;;;;;;6245545;23;20000;-68
2023/04/06 13:45:37;;;;;;;16.30;9.07;;;15.90;38.00;;;;;;6245635;23;20422;-68
2023/04/06 13:48:03;;;;;;;14.05;9.10;;;15.90;38.10;;;;;;6245743;23;20071;-67
2023/04/06 13:50:29;;;;;;;12.68;8.73;;;15.90;38.30;;;;;;6245370;23;20059;-68
2023/04/06 13:52:55;;;;;;;20.73;9.05;;;16.00;37.00;;;;;;6245599;23;20001;-68
2023/04/06 13:55:24;;;;;;;12.07;8.93;;;15.90;36.80;;;;;;6245292;23;20434;-69
2023/04/06 13:57:51;;;;;;;17.00;8.75;;;15.90;36.90;;;;;;6245165;23;20030;-68
2023/04/06 14:00:17;;;;;;;13.15;9.02;;;15.90;37.10;;;;;;6244662;23;20394;-68
2023/04/06 14:02:43;;;;;;;12.57;9.20;;;15.90;37.20;;;;;;6245132;23;20000;-67
2023/04/06 14:05:10;;;;;;;18.48;9.18;;;15.90;37.20;;;;;;6245177;23;20000;-68
2023/04/06 14:07:37;;;;;;;13.05;9.27;;;15.90;38.30;;;;;;6245176;23;19996;-67
2023/04/06 14:10:03;;;;;;;15.27;8.68;;;15.90;37.90;;;;;;6245263;23;20010;-67
2023/04/06 14:12:31;;;;;;;13.52;9.15;;;15.90;37.40;;;;;;6245062;23;20027;-68
2023/04/06 14:14:57;;;;;;;14.63;8.55;;;15.90;38.60;;;;;;6245104;23;20050;-68
2023/04/06 14:17:22;;;;;;;16.90;8.93;;;15.90;39.30;;;;;;6245101;23;20008;-68
2023/04/06 14:19:48;;;;;;;16.92;8.77;;;15.90;36.90;;;;;;6245189;23;20012;-68
2023/04/06 14:22:14;;;;;;;17.08;10.25;;;15.80;38.10;;;;;;6245257;23;20320;-67
2023/04/06 14:24:40;;;;;;;20.05;10.07;;;15.80;37.90;;;;;;6245644;23;20011;-69